Latest Weather Observations for Cape Nelson

IDV60801

Issued at 1:35 pm EST Wednesday 1 October 2014 (issued every 30 minutes, with the page automatically refreshed every 10 minutes)

About weather observations | Map of weather stations | Latest weather observations for VIC | Other Formats
Station Details ID: 090184 Name: CAPE NELSON LIGHTHOUSE Lat: -38.43 Lon: 141.54 Height: 45.4 m
Data from the previous 72 hours. | See also: Recent months at Cape Nelson
Date/Time
EST
Temp
°C
App
Temp
°C
Dew
Point
Rel
Hum
%
Delta-T
°C
Wind Press
QNH
hPa
Press
MSL
hPa
Rain
since 9 am
mm
Dir
 
Spd
km/h
Gust
km/h
Spd
kts
Gust
kts
01/01:30pm 12.3 7.7 6.4 67 2.8 NW 20 33 11 18 1025.7 1025.7 0.0
01/01:00pm 13.4 8.9 6.0 61 3.5 WNW 19 32 10 17 1025.7 1025.7 0.0
01/12:30pm 13.0 7.6 4.7 57 3.8 W 22 35 12 19 1025.7 1025.7 0.0
01/12:00pm 13.6 9.4 5.5 58 3.8 N 17 26 9 14 1025.4 1025.4 0.0
01/11:30am 12.7 8.5 5.6 62 3.3 NNW 17 24 9 13 1025.5 1025.5 0.0
01/11:00am 13.4 9.1 5.1 57 3.8 NNE 17 26 9 14 1025.4 1025.4 0.0
01/10:30am 13.4 9.1 5.3 58 3.8 N 17 24 9 13 1025.3 1025.3 0.0
01/10:00am 12.9 7.8 4.3 56 3.9 SW 20 26 11 14 1025.2 1025.2 0.0
01/09:30am 13.2 8.8 4.9 57 3.8 NE 17 30 9 16 1024.6 1024.7 0.0
01/09:00am 11.4 7.1 5.1 65 2.9 NNE 17 22 9 12 1024.5 1024.6 10.0
01/08:30am 12.0 7.3 3.0 54 4.0 NE 17 30 9 16 1023.6 1023.7 10.0
01/08:00am 12.0 7.6 5.0 62 3.2 ENE 17 32 9 17 1023.0 1023.1 10.0
01/07:30am 11.9 7.2 5.1 63 3.1 NNE 19 30 10 16 1022.7 1022.7 10.0
01/07:00am 10.7 6.3 4.8 67 2.7 NE 17 26 9 14 1022.4 1022.4 10.0
01/06:30am 10.3 5.1 3.3 62 3.1 NNE 20 26 11 14 1021.6 1021.6 10.0
01/06:00am 10.4 5.6 4.8 68 2.5 NNE 19 26 10 14 1021.1 1021.1 10.0
01/05:30am 10.4 5.3 3.9 64 2.9 NE 20 32 11 17 1020.6 1020.6 10.0
01/05:00am 10.5 5.6 4.0 64 2.9 NNE 19 26 10 14 1020.2 1020.2 10.0
01/04:30am 10.6 5.8 4.5 66 2.7 NNE 19 32 10 17 1019.8 1019.8 10.0
01/04:00am 10.6 5.8 5.4 70 2.4 N 20 35 11 19 1019.5 1019.5 10.0
01/03:30am 10.5 5.1 4.6 67 2.7 NE 22 35 12 19 1019.3 1019.3 10.0
01/03:00am 10.7 5.6 4.2 64 2.9 N 20 28 11 15 1019.1 1019.1 10.0
01/02:30am 10.5 5.3 5.5 71 2.3 NW 22 32 12 17 1019.1 1019.1 10.0
01/02:00am 10.5 4.3 1.9 55 3.6 NE 24 33 13 18 1018.6 1018.6 10.0
01/01:30am 10.5 4.9 3.5 62 3.1 NE 22 37 12 20 1018.2 1018.2 10.0
01/01:14am 10.4 4.0 5.0 69 2.4 SSE 28 46 15 25 1018.0 1018.0 10.0
01/01:00am 10.7 5.3 4.4 65 2.8 NNE 22 37 12 20 1017.9 1017.9 10.0
01/12:30am 10.1 4.5 3.6 64 2.8 NNE 22 32 12 17 1017.9 1017.9 10.0
01/12:22am 10.6 4.0 4.1 64 2.9 SSE 28 46 15 25 1017.4 1017.4 10.0
01/12:00am 10.4 4.0 3.0 60 3.2 NE 26 43 14 23 1017.0 1017.0 10.0
 
Date/Time
EST
Temp
°C
App
Temp
°C
Dew
Point
Rel
Hum
%
Delta-T
°C
Wind Press
QNH
hPa
Press
MSL
hPa
Rain
since 9 am
mm
Dir
 
Spd
km/h
Gust
km/h
Spd
kts
Gust
kts
30/11:30pm 9.3 3.1 4.5 72 2.1 NNE 26 44 14 24 1016.6 1016.6 10.0
30/11:00pm 9.8 5.0 5.4 74 2.0 NNE 20 28 11 15 1016.5 1016.5 9.2
30/10:50pm 9.9 2.8 5.5 74 2.0 S 32 56 17 30 1016.2 1016.2 9.2
30/10:30pm 10.6 4.9 4.9 68 2.6 NE 24 32 13 17 1016.1 1016.1 9.2
30/10:23pm 10.6 3.4 4.9 68 2.6 WNW 32 54 17 29 1016.1 1016.1 9.2
30/10:22pm 10.7 3.6 5.3 69 2.5 NW 32 48 17 26 1016.0 1016.0 9.2
30/10:13pm 10.5 0.8 3.8 63 3.0 W 44 67 24 36 1016.1 1016.1 9.2
30/10:09pm 10.4 2.9 3.2 61 3.1 NW 32 46 17 25 1015.7 1015.7 9.2
30/10:00pm 10.6 1.1 3.9 63 3.0 W 43 61 23 33 1015.7 1015.7 9.2
30/09:30pm 10.6 2.9 3.2 60 3.2 WNW 33 65 18 35 1014.9 1014.9 9.2
30/09:18pm 10.8 1.5 5.1 68 2.6 W 43 63 23 34 1014.7 1014.7 9.2
30/09:14pm 10.4 0.9 4.1 65 2.8 WNW 43 56 23 30 1014.9 1014.9 9.2
30/09:06pm 9.3 2.8 4.9 74 2.0 ESE 28 46 15 25 1014.7 1014.7 9.2
30/09:00pm 10.7 2.8 4.4 65 2.8 W 35 52 19 28 1014.4 1014.4 9.2
30/08:56pm 11.3 2.6 4.1 61 3.2 W 39 59 21 32 1014.6 1014.6 9.2
30/08:53pm 11.3 2.6 4.3 62 3.1 W 39 54 21 29 1014.6 1014.6 9.2
30/08:47pm 11.1 4.4 3.4 59 3.4 NW 28 46 15 25 1014.2 1014.2 9.2
30/08:46pm 11.1 3.9 3.2 58 3.5 NW 30 46 16 25 1014.1 1014.1 9.2
30/08:30pm 11.2 0.3 3.5 59 3.4 W 50 72 27 39 1014.0 1014.0 9.2
30/08:27pm 11.1 0.6 3.6 60 3.3 W 48 67 26 36 1013.8 1013.8 9.2
30/08:23pm 11.2 -0.8 3.5 59 3.4 W 56 67 30 36 1013.9 1013.9 9.2
30/08:13pm 11.2 2.9 4.0 61 3.2 WNW 37 65 20 35 1013.4 1013.4 9.2
30/08:06pm 10.7 4.5 6.3 74 2.1 NNW 28 48 15 26 1013.1 1013.1 9.2
30/08:00pm 10.1 4.5 5.5 73 2.1 N 24 37 13 20 1013.2 1013.2 9.2
30/07:44pm 11.2 3.7 3.7 60 3.3 NNW 32 52 17 28 1012.5 1012.5 9.2
30/07:30pm 11.5 -0.5 4.0 60 3.4 W 56 74 30 40 1012.7 1012.7 9.2
30/07:00pm 11.2 0.8 4.4 63 3.1 W 48 69 26 37 1012.1 1012.1 9.2
30/06:30pm 11.0 2.0 4.7 65 2.9 W 41 59 22 32 1011.7 1011.7 9.2
30/06:00pm 10.6 0.4 3.4 61 3.2 W 46 76 25 41 1011.5 1011.5 9.2
30/05:41pm 11.1 2.2 5.2 67 2.7 W 41 67 22 36 1010.8 1010.8 9.2
30/05:36pm 11.4 3.8 5.7 68 2.6 NNW 35 54 19 29 1010.3 1010.3 9.2
30/05:30pm 12.1 2.9 5.3 63 3.1 W 43 61 23 33 1010.7 1010.7 9.2
30/05:00pm 12.0 1.3 4.7 61 3.3 W 50 70 27 38 1010.4 1010.4 9.2
30/04:30pm 11.8 -0.5 5.2 64 3.0 W 59 80 32 43 1009.7 1009.7 9.2
30/04:00pm 12.0 2.5 6.7 70 2.5 W 46 67 25 36 1009.1 1009.1 9.2
30/03:30pm 11.8 0.7 6.3 69 2.6 W 54 74 29 40 1008.5 1008.5 9.2
30/03:00pm 11.4 1.1 6.7 73 2.2 W 50 72 27 39 1007.8 1007.8 8.6
30/02:33pm 12.7 1.0 6.1 64 3.1 W 57 76 31 41 1007.3 1007.3 8.4
30/02:30pm 12.8 0.6 5.5 61 3.4 W 59 76 32 41 1007.2 1007.2 8.4
30/02:00pm 12.6 0.9 5.5 62 3.3 W 56 76 30 41 1006.9 1006.9 8.4
30/01:30pm 12.4 3.7 7.7 73 2.3 W 43 70 23 38 1006.4 1006.4 8.4
30/01:01pm 11.0 3.9 7.9 81 1.5 W 35 54 19 29 1006.1 1006.1 8.4
30/01:00pm 10.9 4.2 8.0 82 1.4 W 33 50 18 27 1006.3 1006.3 8.4
30/12:59pm 10.9 4.4 8.1 83 1.4 W 32 43 17 23 1006.4 1006.4 8.4
30/12:39pm 10.4 -0.8 8.3 87 1.0 W 57 78 31 42 1005.2 1005.2 8.4
30/12:37pm 10.2 2.9 8.8 91 0.7 NW 37 78 20 42 1004.9 1004.9 8.4
30/12:33pm 10.1 3.6 8.9 92 0.6 NW 33 52 18 28 1004.4 1004.3 8.4
30/12:30pm 10.1 3.2 8.9 92 0.6 NNW 35 50 19 27 1004.0 1004.0 8.2
30/12:24pm 10.1 3.2 8.9 92 0.6 NNW 35 46 19 25 1003.6 1003.6 8.0
30/12:00pm 11.4 2.6 9.5 88 1.0 WNW 46 89 25 48 1004.2 1004.1 6.0
30/11:57am 11.9 3.0 9.3 84 1.3 WNW 46 89 25 48 1004.0 1004.0 5.8
30/11:54am 13.3 5.7 11.7 90 0.9 WNW 43 63 23 34 1003.7 1003.7 5.8
30/11:30am 12.4 5.1 11.6 95 0.4 WNW 41 56 22 30 1004.0 1004.0 5.8
30/11:00am 11.9 4.9 10.1 89 0.9 W 37 61 20 33 1003.9 1003.9 4.0
30/10:55am 11.9 4.5 9.8 87 1.1 W 39 61 21 33 1004.0 1004.0 3.6
30/10:32am 13.1 6.8 12.2 94 0.5 NW 37 56 20 30 1003.9 1003.9 3.2
30/10:30am 13.0 5.9 12.1 94 0.5 NW 41 56 22 30 1003.9 1003.9 3.2
30/10:00am 13.3 5.5 11.9 91 0.8 NW 44 67 24 36 1004.3 1004.2 2.4
30/09:30am 14.2 4.9 11.9 86 1.2 NW 52 74 28 40 1004.0 1004.0 0.2
30/09:02am 16.9 7.4 11.0 68 3.2 NW 52 70 28 38 1003.7 1003.7 0.0
30/09:00am 17.2 7.7 11.2 68 3.3 NW 52 69 28 37 1003.7 1003.7 0.0
30/08:30am 15.7 6.1 10.7 72 2.7 NW 52 74 28 40 1004.2 1004.1 0.0
30/08:00am 15.5 7.4 10.7 73 2.6 NW 44 65 24 35 1004.4 1004.3 0.0
30/07:30am 15.0 8.2 10.6 75 2.3 NW 37 56 20 30 1004.9 1004.9 0.0
30/07:28am 14.9 8.1 10.5 75 2.3 NW 37 56 20 30 1004.8 1004.8 0.0
30/07:00am 14.2 7.8 10.6 79 1.9 NW 35 50 19 27 1005.3 1005.3 0.0
30/06:30am 14.1 7.3 10.7 80 1.8 NNW 37 52 20 28 1005.4 1005.4 0.0
30/06:00am 13.7 6.9 10.7 82 1.6 NNW 37 50 20 27 1005.3 1005.3 0.0
30/05:34am 13.7 7.7 10.7 82 1.6 NW 33 54 18 29 1005.4 1005.4 0.0
30/05:30am 13.7 7.9 10.7 82 1.6 NW 32 48 17 26 1005.5 1005.5 0.0
30/05:10am 13.3 8.2 10.7 84 1.4 NNW 28 54 15 29 1005.7 1005.7 0.0
30/05:00am 13.2 7.7 10.6 84 1.4 NNW 30 44 16 24 1005.7 1005.7 0.0
30/04:30am 12.9 7.7 10.4 85 1.3 NNW 28 37 15 20 1006.0 1006.0 0.0
30/04:00am 13.0 8.3 10.5 85 1.3 NNW 26 39 14 21 1006.4 1006.4 0.0
30/03:30am 12.9 8.1 10.3 84 1.3 NNW 26 41 14 22 1006.8 1006.8 0.0
30/03:00am 12.6 8.5 10.0 84 1.3 NNW 22 35 12 19 1007.3 1007.3 0.0
30/02:30am 12.3 7.4 9.9 85 1.2 NNW 26 39 14 21 1007.6 1007.6 0.0
30/02:00am 11.7 7.0 9.1 84 1.3 NNW 24 32 13 17 1007.8 1007.8 0.0
30/01:30am 11.7 7.0 9.1 84 1.3 NNW 24 32 13 17 1008.5 1008.5 0.0
30/01:00am 12.0 7.6 9.0 82 1.5 NNW 22 37 12 20 1008.8 1008.8 0.0
30/12:30am 12.8 7.4 9.4 80 1.7 NNW 28 39 15 21 1009.2 1009.2 0.0
30/12:00am 12.8 7.9 9.8 82 1.5 NW 26 35 14 19 1009.4 1009.4 0.0
 
Date/Time
EST
Temp
°C
App
Temp
°C
Dew
Point
Rel
Hum
%
Delta-T
°C
Wind Press
QNH
hPa
Press
MSL
hPa
Rain
since 9 am
mm
Dir
 
Spd
km/h
Gust
km/h
Spd
kts
Gust
kts
29/11:30pm 12.7 7.8 10.1 84 1.3 NW 26 39 14 21 1009.9 1009.9 0.0
29/11:00pm 13.1 9.1 10.5 84 1.4 NW 22 32 12 17 1010.3 1010.3 0.0
29/10:30pm 13.7 10.1 10.7 82 1.6 NW 20 33 11 18 1010.7 1010.7 0.0
29/10:00pm 14.0 8.8 10.2 78 2.0 WNW 28 39 15 21 1010.9 1010.9 0.0
29/09:30pm 13.9 7.7 9.3 74 2.3 NW 32 46 17 25 1010.9 1010.9 0.0
29/09:08pm 14.1 7.1 9.9 76 2.2 WNW 37 56 20 30 1011.1 1011.1 0.0
29/09:00pm 14.2 6.6 9.2 72 2.6 WNW 39 56 21 30 1011.0 1011.0 0.0
29/08:30pm 14.3 6.9 9.9 75 2.3 WNW 39 52 21 28 1011.1 1011.1 0.0
29/08:00pm 14.1 7.4 9.7 75 2.3 WNW 35 48 19 26 1011.0 1011.0 0.0
29/07:30pm 14.1 7.0 9.7 75 2.3 WNW 37 48 20 26 1010.8 1010.8 0.0
29/07:00pm 14.2 6.7 9.6 74 2.4 WNW 39 52 21 28 1010.5 1010.5 0.0
29/06:30pm 14.1 6.6 9.3 73 2.5 WNW 39 54 21 29 1010.0 1010.0 0.0
29/06:00pm 14.3 6.9 9.7 74 2.4 WNW 39 54 21 29 1009.9 1009.9 0.0
29/05:30pm 15.0 8.1 10.4 74 2.4 WNW 37 50 20 27 1009.8 1009.8 0.0
29/05:00pm 15.4 8.0 10.0 70 2.8 WNW 39 54 21 29 1009.7 1009.7 0.0
29/04:36pm 15.6 8.2 9.7 68 3.1 WNW 39 57 21 31 1009.7 1009.7 0.0
29/04:30pm 15.9 8.6 10.2 69 3.0 WNW 39 52 21 28 1009.7 1009.7 0.0
29/04:00pm 16.3 9.2 9.7 65 3.5 WNW 37 50 20 27 1009.8 1009.8 0.0
29/03:30pm 16.5 9.9 9.9 65 3.5 WNW 35 48 19 26 1010.0 1010.0 0.0
29/03:00pm 16.8 10.7 10.4 66 3.4 WNW 33 48 18 26 1010.3 1010.3 0.0
29/02:30pm 17.5 12.3 10.4 63 3.8 WNW 28 44 15 24 1010.6 1010.6 0.0
29/02:00pm 17.0 11.8 10.1 64 3.7 WNW 28 37 15 20 1010.8 1010.8 0.0
29/01:30pm 16.9 11.1 9.6 62 3.8 WNW 30 41 16 22 1011.0 1011.0 0.0
29/01:00pm 17.2 11.4 9.6 61 4.0 WNW 30 41 16 22 1011.2 1011.2 0.0
29/12:30pm 17.5 11.8 9.7 60 4.1 WNW 30 44 16 24 1011.3 1011.3 0.0
29/12:00pm 17.0 11.7 9.9 63 3.7 WNW 28 39 15 21 1011.4 1011.4 0.0
29/11:30am 17.0 11.8 10.1 64 3.7 WNW 28 41 15 22 1011.7 1011.7 0.0
29/11:00am 16.8 10.7 9.7 63 3.7 WNW 32 43 17 23 1011.8 1011.8 0.0
29/10:30am 16.2 10.2 8.7 61 3.8 WNW 30 39 16 21 1011.7 1011.7 0.0
29/10:00am 15.6 9.3 8.8 64 3.5 WNW 32 43 17 23 1012.0 1012.0 0.0
29/09:30am 15.3 8.7 7.6 60 3.8 WNW 32 46 17 25 1012.1 1012.1 0.0
29/09:00am 14.7 8.2 8.2 65 3.3 WNW 32 41 17 22 1012.1 1012.1 1.4
29/08:30am 13.9 8.1 9.5 75 2.3 WNW 30 39 16 21 1011.8 1011.8 1.4
29/08:00am 13.9 8.9 9.5 75 2.3 WNW 26 35 14 19 1011.7 1011.7 1.4
29/07:30am 13.1 7.9 10.1 82 1.5 WNW 28 41 15 22 1011.5 1011.5 1.4
29/07:00am 13.4 6.8 8.5 72 2.5 W 33 43 18 23 1011.1 1011.1 1.4
29/06:30am 13.4 8.0 9.5 77 2.0 WNW 28 39 15 21 1010.8 1010.8 1.4
29/06:00am 13.3 6.9 8.6 73 2.4 WNW 32 41 17 22 1010.4 1010.4 1.4
29/05:30am 13.2 6.2 8.3 72 2.4 WNW 35 50 19 27 1010.1 1010.1 1.4
29/05:00am 13.1 6.1 8.4 73 2.3 WNW 35 50 19 27 1009.8 1009.8 1.4
29/04:37am 13.2 6.9 9.1 76 2.1 WNW 32 50 17 27 1009.6 1009.6 1.4
29/04:30am 13.5 7.4 9.7 78 2.0 W 32 48 17 26 1009.6 1009.6 1.4
29/04:02am 13.3 6.9 9.2 76 2.1 W 33 52 18 28 1009.0 1009.0 1.4
29/04:00am 13.3 6.5 9.2 76 2.1 W 35 52 19 28 1009.0 1009.0 1.4
29/03:30am 13.5 5.7 9.7 78 2.0 WNW 41 61 22 33 1008.7 1008.7 1.4
29/03:03am 13.6 6.2 10.0 79 1.9 WNW 39 57 21 31 1008.6 1008.6 1.4
29/03:00am 13.6 5.8 9.8 78 2.0 WNW 41 54 22 29 1008.6 1008.6 1.4
29/02:42am 13.5 6.8 9.7 78 2.0 W 35 54 19 29 1008.6 1008.6 1.4
29/02:30am 13.5 6.1 9.9 79 1.9 W 39 56 21 30 1008.3 1008.3 1.4
29/02:00am 13.6 7.1 10.2 80 1.8 W 35 54 19 29 1008.4 1008.4 1.4
29/01:53am 13.5 7.0 10.3 81 1.7 W 35 54 19 29 1008.4 1008.4 1.4
29/01:30am 13.2 6.2 11.3 88 1.0 WNW 39 54 21 29 1008.7 1008.7 1.4
29/01:00am 13.6 5.0 10.4 81 1.7 WNW 46 69 25 37 1008.2 1008.2 1.4
29/12:30am 13.3 4.8 12.0 92 0.7 WNW 48 69 26 37 1007.6 1007.6 1.4
29/12:08am 14.5 6.6 11.5 82 1.6 WNW 44 63 24 34 1007.5 1007.5 0.0
29/12:00am 14.6 6.7 11.4 81 1.7 WNW 44 61 24 33 1007.4 1007.4 0.0
 
Date/Time
EST
Temp
°C
App
Temp
°C
Dew
Point
Rel
Hum
%
Delta-T
°C
Wind Press
QNH
hPa
Press
MSL
hPa
Rain
since 9 am
mm
Dir
 
Spd
km/h
Gust
km/h
Spd
kts
Gust
kts
28/11:30pm 14.4 6.0 11.2 81 1.7 WNW 46 67 25 36 1007.1 1007.1 0.0
28/11:11pm 14.1 7.5 11.3 83 1.5 WNW 37 56 20 30 1007.1 1007.1 0.0
28/11:00pm 14.0 7.8 11.3 84 1.4 NW 35 48 19 26 1007.2 1007.2 0.0
28/10:41pm 13.6 7.4 11.3 86 1.2 NW 35 54 19 29 1006.9 1006.9 0.0
28/10:30pm 13.6 7.4 11.3 86 1.2 NW 35 46 19 25 1006.8 1006.8 0.0
28/10:00pm 13.6 7.7 11.1 85 1.3 NW 33 46 18 25 1006.6 1006.6 0.0
28/09:30pm 13.8 7.9 11.0 83 1.5 NW 33 50 18 27 1006.5 1006.5 0.0
28/09:00pm 14.0 8.3 11.0 82 1.6 NW 32 44 17 24 1006.4 1006.4 0.0
28/08:37pm 14.0 8.6 11.0 82 1.6 NW 30 48 16 26 1006.1 1006.1 0.0
28/08:30pm 14.0 8.0 10.8 81 1.7 NW 33 48 18 26 1005.9 1005.9 0.0
28/08:02pm 14.0 8.6 11.0 82 1.6 NW 30 54 16 29 1005.7 1005.7 0.0
28/08:00pm 14.0 8.6 11.0 82 1.6 NW 30 41 16 22 1005.7 1005.7 0.0
28/07:30pm 14.0 9.4 11.0 82 1.6 NW 26 39 14 21 1005.3 1005.3 0.0
28/07:00pm 14.2 8.3 10.6 79 1.9 WNW 32 43 17 23 1005.2 1005.2 0.0
28/06:30pm 14.4 9.3 10.6 78 2.0 WNW 28 39 15 21 1004.6 1004.5 0.0
28/06:00pm 14.7 8.2 10.5 76 2.2 WNW 35 46 19 25 1004.4 1004.3 0.0
28/05:30pm 15.2 10.4 10.4 73 2.5 W 26 39 14 21 1004.3 1004.2 0.0
28/05:11pm 15.3 9.9 10.9 75 2.3 W 30 50 16 27 1004.2 1004.1 0.0
28/05:00pm 15.4 10.5 11.4 77 2.2 W 28 44 15 24 1004.0 1004.0 0.0
28/04:30pm 15.8 10.9 11.2 74 2.5 W 28 44 15 24 1003.5 1003.5 0.0
28/04:06pm 15.5 7.5 10.3 71 2.7 W 43 61 23 33 1002.8 1002.8 0.0
28/04:00pm 15.7 8.1 11.7 77 2.2 W 43 59 23 32 1002.8 1002.8 0.0
28/03:30pm 18.6 10.2 11.2 62 4.0 WNW 46 69 25 37 1001.9 1001.9 0.0
28/03:13pm 21.4 13.2 9.6 47 6.3 WNW 43 61 23 33 1001.6 1001.6 0.0
28/03:00pm 21.5 13.3 9.7 47 6.4 WNW 43 57 23 31 1001.8 1001.8 0.0
28/02:30pm 23.9 13.1 6.2 32 9.1 NW 52 72 28 39 1001.3 1001.3 0.0
28/02:00pm 25.5 14.6 5.7 28 10.2 NW 52 82 28 44 1000.9 1000.9 0.0

Other Formats:

Comma delimited format used in spreadsheet applications
http://www.bom.gov.au/fwo/IDV60801/IDV60801.94826.axf

JavaScript Object Notation format (JSON) in row-major order
http://www.bom.gov.au/fwo/IDV60801/IDV60801.94826.json